sensor_id;sensor_type;location;lat;lon;timestamp;temperature;humidity
12408;DHT22;6268;48.188;17.134;2023-12-29T00:00:23;3.90;99.90
12408;DHT22;6268;48.188;17.134;2023-12-29T00:02:52;3.90;99.90
12408;DHT22;6268;48.188;17.134;2023-12-29T00:05:20;3.70;99.90
12408;DHT22;6268;48.188;17.134;2023-12-29T00:07:52;3.40;99.90
12408;DHT22;6268;48.188;17.134;2023-12-29T00:10:20;3.40;99.90
12408;DHT22;6268;48.188;17.134;2023-12-29T00:12:49;3.40;99.90
12408;DHT22;6268;48.188;17.134;2023-12-29T00:15:18;3.50;99.90
12408;DHT22;6268;48.188;17.134;2023-12-29T00:17:48;3.30;99.90
12408;DHT22;6268;48.188;17.134;2023-12-29T00:20:17;3.30;99.90
12408;DHT22;6268;48.188;17.134;2023-12-29T00:23:03;3.50;99.90
12408;DHT22;6268;48.188;17.134;2023-12-29T00:25:32;3.50;99.90
12408;DHT22;6268;48.188;17.134;2023-12-29T00:28:05;3.60;99.90
12408;DHT22;6268;48.188;17.134;2023-12-29T00:30:38;3.60;99.90
12408;DHT22;6268;48.188;17.134;2023-12-29T00:33:27;3.70;99.90
12408;DHT22;6268;48.188;17.134;2023-12-29T00:35:57;3.70;99.90
12408;DHT22;6268;48.188;17.134;2023-12-29T00:38:26;3.70;99.90
12408;DHT22;6268;48.188;17.134;2023-12-29T00:40:55;3.60;99.90
12408;DHT22;6268;48.188;17.134;2023-12-29T00:43:24;3.70;99.90
12408;DHT22;6268;48.188;17.134;2023-12-29T00:45:52;3.70;99.90
12408;DHT22;6268;48.188;17.134;2023-12-29T00:48:21;3.80;99.90
12408;DHT22;6268;48.188;17.134;2023-12-29T00:50:51;3.80;99.90
12408;DHT22;6268;48.188;17.134;2023-12-29T00:53:20;3.70;99.90
12408;DHT22;6268;48.188;17.134;2023-12-29T00:55:48;3.80;99.90
12408;DHT22;6268;48.188;17.134;2023-12-29T00:58:17;3.90;99.90
12408;DHT22;6268;48.188;17.134;2023-12-29T01:00:45;3.80;99.90
12408;DHT22;6268;48.188;17.134;2023-12-29T01:03:14;3.80;99.90
12408;DHT22;6268;48.188;17.134;2023-12-29T01:05:42;3.80;99.90
12408;DHT22;6268;48.188;17.134;2023-12-29T01:08:12;3.90;99.90
12408;DHT22;6268;48.188;17.134;2023-12-29T01:10:41;3.90;99.90
12408;DHT22;6268;48.188;17.134;2023-12-29T01:13:10;3.90;99.90
12408;DHT22;6268;48.188;17.134;2023-12-29T01:15:39;4.00;99.90
12408;DHT22;6268;48.188;17.134;2023-12-29T01:18:11;4.00;99.90
12408;DHT22;6268;48.188;17.134;2023-12-29T01:20:40;4.10;99.90
12408;DHT22;6268;48.188;17.134;2023-12-29T01:23:09;4.20;99.90
12408;DHT22;6268;48.188;17.134;2023-12-29T01:25:39;4.10;99.90
12408;DHT22;6268;48.188;17.134;2023-12-29T01:28:07;4.00;99.90
12408;DHT22;6268;48.188;17.134;2023-12-29T01:30:36;4.00;99.90
12408;DHT22;6268;48.188;17.134;2023-12-29T01:33:05;3.80;99.90
12408;DHT22;6268;48.188;17.134;2023-12-29T01:35:34;3.60;99.90
12408;DHT22;6268;48.188;17.134;2023-12-29T01:38:02;3.60;99.90
12408;DHT22;6268;48.188;17.134;2023-12-29T01:40:31;3.40;99.90
12408;DHT22;6268;48.188;17.134;2023-12-29T01:43:02;3.30;99.90
12408;DHT22;6268;48.188;17.134;2023-12-29T01:45:30;3.30;99.90
12408;DHT22;6268;48.188;17.134;2023-12-29T01:48:07;3.40;99.90
12408;DHT22;6268;48.188;17.134;2023-12-29T01:50:36;3.50;99.90
12408;DHT22;6268;48.188;17.134;2023-12-29T01:53:05;3.70;99.90
12408;DHT22;6268;48.188;17.134;2023-12-29T01:55:34;3.80;99.90
12408;DHT22;6268;48.188;17.134;2023-12-29T01:58:04;3.90;99.90
12408;DHT22;6268;48.188;17.134;2023-12-29T02:00:33;3.90;99.90
12408;DHT22;6268;48.188;17.134;2023-12-29T02:03:03;3.90;99.90
12408;DHT22;6268;48.188;17.134;2023-12-29T02:05:34;3.90;99.90
12408;DHT22;6268;48.188;17.134;2023-12-29T02:08:04;3.90;99.90
12408;DHT22;6268;48.188;17.134;2023-12-29T02:10:36;3.90;99.90
12408;DHT22;6268;48.188;17.134;2023-12-29T02:13:06;4.00;99.90
12408;DHT22;6268;48.188;17.134;2023-12-29T02:15:35;4.10;99.90
12408;DHT22;6268;48.188;17.134;2023-12-29T02:18:06;4.10;99.90
12408;DHT22;6268;48.188;17.134;2023-12-29T02:20:36;4.10;99.90
12408;DHT22;6268;48.188;17.134;2023-12-29T02:23:04;4.00;99.90
12408;DHT22;6268;48.188;17.134;2023-12-29T02:25:34;3.90;99.90
12408;DHT22;6268;48.188;17.134;2023-12-29T02:28:08;3.90;99.90
12408;DHT22;6268;48.188;17.134;2023-12-29T02:30:43;3.90;99.90
12408;DHT22;6268;48.188;17.134;2023-12-29T02:33:16;3.90;99.90
12408;DHT22;6268;48.188;17.134;2023-12-29T02:35:48;3.90;99.90
12408;DHT22;6268;48.188;17.134;2023-12-29T02:38:20;3.90;99.90
12408;DHT22;6268;48.188;17.134;2023-12-29T02:40:50;3.90;99.90
12408;DHT22;6268;48.188;17.134;2023-12-29T02:43:18;3.90;99.90
12408;DHT22;6268;48.188;17.134;2023-12-29T02:45:46;3.90;99.90
12408;DHT22;6268;48.188;17.134;2023-12-29T02:48:15;3.90;99.90
12408;DHT22;6268;48.188;17.134;2023-12-29T02:50:44;4.00;99.90
12408;DHT22;6268;48.188;17.134;2023-12-29T02:53:12;4.10;99.90
12408;DHT22;6268;48.188;17.134;2023-12-29T02:55:40;4.00;99.90
12408;DHT22;6268;48.188;17.134;2023-12-29T02:58:11;4.00;99.90
12408;DHT22;6268;48.188;17.134;2023-12-29T03:00:40;4.10;99.90
12408;DHT22;6268;48.188;17.134;2023-12-29T03:03:08;4.10;99.90
12408;DHT22;6268;48.188;17.134;2023-12-29T03:05:37;4.10;99.90
12408;DHT22;6268;48.188;17.134;2023-12-29T03:08:06;4.00;99.90
12408;DHT22;6268;48.188;17.134;2023-12-29T03:10:34;3.90;99.90
12408;DHT22;6268;48.188;17.134;2023-12-29T03:13:03;3.80;99.90
12408;DHT22;6268;48.188;17.134;2023-12-29T03:15:33;3.90;99.90
12408;DHT22;6268;48.188;17.134;2023-12-29T03:18:02;4.00;99.90
12408;DHT22;6268;48.188;17.134;2023-12-29T03:20:32;4.10;99.90
12408;DHT22;6268;48.188;17.134;2023-12-29T03:23:00;4.10;99.90
12408;DHT22;6268;48.188;17.134;2023-12-29T03:25:29;4.10;99.90
12408;DHT22;6268;48.188;17.134;2023-12-29T03:27:58;4.10;99.90
12408;DHT22;6268;48.188;17.134;2023-12-29T03:30:28;4.20;99.90
12408;DHT22;6268;48.188;17.134;2023-12-29T03:32:58;4.10;99.90
12408;DHT22;6268;48.188;17.134;2023-12-29T03:35:30;4.00;99.90
12408;DHT22;6268;48.188;17.134;2023-12-29T03:37:58;4.10;99.90
12408;DHT22;6268;48.188;17.134;2023-12-29T03:40:28;4.10;99.90
12408;DHT22;6268;48.188;17.134;2023-12-29T03:42:57;4.10;99.90
12408;DHT22;6268;48.188;17.134;2023-12-29T03:45:25;4.10;99.90
12408;DHT22;6268;48.188;17.134;2023-12-29T03:47:54;4.10;99.90
12408;DHT22;6268;48.188;17.134;2023-12-29T03:50:25;4.10;99.90
12408;DHT22;6268;48.188;17.134;2023-12-29T03:52:53;4.00;99.90
12408;DHT22;6268;48.188;17.134;2023-12-29T03:55:22;3.90;99.90
12408;DHT22;6268;48.188;17.134;2023-12-29T03:57:51;3.70;99.90
12408;DHT22;6268;48.188;17.134;2023-12-29T04:00:20;3.70;99.90
12408;DHT22;6268;48.188;17.134;2023-12-29T04:02:48;3.70;99.90
12408;DHT22;6268;48.188;17.134;2023-12-29T04:05:17;3.70;99.90
12408;DHT22;6268;48.188;17.134;2023-12-29T04:07:47;3.80;99.90
12408;DHT22;6268;48.188;17.134;2023-12-29T04:10:15;3.80;99.90
12408;DHT22;6268;48.188;17.134;2023-12-29T04:12:44;3.80;99.90
12408;DHT22;6268;48.188;17.134;2023-12-29T04:15:12;3.90;99.90
12408;DHT22;6268;48.188;17.134;2023-12-29T04:17:41;3.90;99.90
12408;DHT22;6268;48.188;17.134;2023-12-29T04:20:10;3.90;99.90
12408;DHT22;6268;48.188;17.134;2023-12-29T04:22:38;3.90;99.90
12408;DHT22;6268;48.188;17.134;2023-12-29T04:25:09;3.90;99.90
12408;DHT22;6268;48.188;17.134;2023-12-29T04:27:39;3.80;99.90
12408;DHT22;6268;48.188;17.134;2023-12-29T04:30:08;3.80;99.90
12408;DHT22;6268;48.188;17.134;2023-12-29T04:32:37;3.80;99.90
12408;DHT22;6268;48.188;17.134;2023-12-29T04:35:07;3.90;99.90
12408;DHT22;6268;48.188;17.134;2023-12-29T04:37:37;3.80;99.90
12408;DHT22;6268;48.188;17.134;2023-12-29T04:40:08;3.90;99.90
12408;DHT22;6268;48.188;17.134;2023-12-29T04:42:37;3.90;99.90
12408;DHT22;6268;48.188;17.134;2023-12-29T04:45:06;3.90;99.90
12408;DHT22;6268;48.188;17.134;2023-12-29T04:47:35;3.80;99.90
12408;DHT22;6268;48.188;17.134;2023-12-29T04:50:04;3.80;99.90
12408;DHT22;6268;48.188;17.134;2023-12-29T04:52:34;3.80;99.90
12408;DHT22;6268;48.188;17.134;2023-12-29T04:55:05;3.80;99.90
12408;DHT22;6268;48.188;17.134;2023-12-29T04:57:35;3.90;99.90
12408;DHT22;6268;48.188;17.134;2023-12-29T05:00:05;3.90;99.90
12408;DHT22;6268;48.188;17.134;2023-12-29T05:02:34;3.90;99.90
12408;DHT22;6268;48.188;17.134;2023-12-29T05:05:03;3.90;99.90
12408;DHT22;6268;48.188;17.134;2023-12-29T05:07:31;3.90;99.90
12408;DHT22;6268;48.188;17.134;2023-12-29T05:10:00;3.80;99.90
12408;DHT22;6268;48.188;17.134;2023-12-29T05:12:28;3.80;99.90
12408;DHT22;6268;48.188;17.134;2023-12-29T05:14:58;3.90;99.90
12408;DHT22;6268;48.188;17.134;2023-12-29T05:17:27;3.80;99.90
12408;DHT22;6268;48.188;17.134;2023-12-29T05:19:56;3.70;99.90
12408;DHT22;6268;48.188;17.134;2023-12-29T05:22:24;3.70;99.90
12408;DHT22;6268;48.188;17.134;2023-12-29T05:24:53;3.70;99.90
12408;DHT22;6268;48.188;17.134;2023-12-29T05:27:24;3.70;99.90
12408;DHT22;6268;48.188;17.134;2023-12-29T05:29:53;3.70;99.90
12408;DHT22;6268;48.188;17.134;2023-12-29T05:32:23;3.70;99.90
12408;DHT22;6268;48.188;17.134;2023-12-29T05:34:52;3.70;99.90
12408;DHT22;6268;48.188;17.134;2023-12-29T05:37:20;3.70;99.90
12408;DHT22;6268;48.188;17.134;2023-12-29T05:39:49;3.70;99.90
12408;DHT22;6268;48.188;17.134;2023-12-29T05:42:18;3.70;99.90
12408;DHT22;6268;48.188;17.134;2023-12-29T05:44:46;3.70;99.90
12408;DHT22;6268;48.188;17.134;2023-12-29T05:47:17;3.80;99.90
12408;DHT22;6268;48.188;17.134;2023-12-29T05:49:47;3.90;99.90
12408;DHT22;6268;48.188;17.134;2023-12-29T05:52:15;3.90;99.90
12408;DHT22;6268;48.188;17.134;2023-12-29T05:54:44;4.00;99.90
12408;DHT22;6268;48.188;17.134;2023-12-29T05:57:15;4.00;99.90
12408;DHT22;6268;48.188;17.134;2023-12-29T05:59:43;4.00;99.90
12408;DHT22;6268;48.188;17.134;2023-12-29T06:02:12;4.10;99.90
12408;DHT22;6268;48.188;17.134;2023-12-29T06:04:40;4.00;99.90
12408;DHT22;6268;48.188;17.134;2023-12-29T06:07:10;4.00;99.90
12408;DHT22;6268;48.188;17.134;2023-12-29T06:09:39;4.10;99.90
12408;DHT22;6268;48.188;17.134;2023-12-29T06:12:08;4.10;99.90
12408;DHT22;6268;48.188;17.134;2023-12-29T06:14:36;4.10;99.90
12408;DHT22;6268;48.188;17.134;2023-12-29T06:17:05;4.10;99.90
12408;DHT22;6268;48.188;17.134;2023-12-29T06:19:34;4.10;99.90
12408;DHT22;6268;48.188;17.134;2023-12-29T06:22:03;4.10;99.90
12408;DHT22;6268;48.188;17.134;2023-12-29T06:24:34;4.10;99.90
12408;DHT22;6268;48.188;17.134;2023-12-29T06:27:03;4.10;99.90
12408;DHT22;6268;48.188;17.134;2023-12-29T06:29:32;4.20;99.90
12408;DHT22;6268;48.188;17.134;2023-12-29T06:32:01;4.20;99.90
12408;DHT22;6268;48.188;17.134;2023-12-29T06:34:29;4.20;99.90
12408;DHT22;6268;48.188;17.134;2023-12-29T06:36:59;4.10;99.90
12408;DHT22;6268;48.188;17.134;2023-12-29T06:39:27;4.20;99.90
12408;DHT22;6268;48.188;17.134;2023-12-29T06:41:57;4.20;99.90
12408;DHT22;6268;48.188;17.134;2023-12-29T06:44:26;4.30;99.90
12408;DHT22;6268;48.188;17.134;2023-12-29T06:46:54;4.30;99.90
12408;DHT22;6268;48.188;17.134;2023-12-29T06:49:23;4.20;99.90
12408;DHT22;6268;48.188;17.134;2023-12-29T06:51:52;4.30;99.90
12408;DHT22;6268;48.188;17.134;2023-12-29T06:54:20;4.30;99.90
12408;DHT22;6268;48.188;17.134;2023-12-29T06:56:48;4.30;99.90
12408;DHT22;6268;48.188;17.134;2023-12-29T06:59:18;4.20;99.90
12408;DHT22;6268;48.188;17.134;2023-12-29T07:01:47;4.10;99.90
12408;DHT22;6268;48.188;17.134;2023-12-29T07:04:16;4.10;99.90
12408;DHT22;6268;48.188;17.134;2023-12-29T07:06:45;4.20;99.90
12408;DHT22;6268;48.188;17.134;2023-12-29T07:09:15;4.30;99.90
12408;DHT22;6268;48.188;17.134;2023-12-29T07:11:47;4.30;99.90
12408;DHT22;6268;48.188;17.134;2023-12-29T07:14:16;4.10;99.90
12408;DHT22;6268;48.188;17.134;2023-12-29T07:16:46;4.20;99.90
12408;DHT22;6268;48.188;17.134;2023-12-29T07:19:14;4.20;99.90
12408;DHT22;6268;48.188;17.134;2023-12-29T07:21:43;4.20;99.90
12408;DHT22;6268;48.188;17.134;2023-12-29T07:24:12;4.30;99.90
12408;DHT22;6268;48.188;17.134;2023-12-29T07:26:40;4.30;99.90
12408;DHT22;6268;48.188;17.134;2023-12-29T07:29:09;4.30;99.90
12408;DHT22;6268;48.188;17.134;2023-12-29T07:31:38;4.40;99.90
12408;DHT22;6268;48.188;17.134;2023-12-29T07:34:09;4.40;99.90
12408;DHT22;6268;48.188;17.134;2023-12-29T07:36:39;4.40;99.90
12408;DHT22;6268;48.188;17.134;2023-12-29T07:39:08;4.40;99.90
12408;DHT22;6268;48.188;17.134;2023-12-29T07:41:39;4.20;99.90
12408;DHT22;6268;48.188;17.134;2023-12-29T07:44:10;4.10;99.90
12408;DHT22;6268;48.188;17.134;2023-12-29T07:46:40;4.10;99.90
12408;DHT22;6268;48.188;17.134;2023-12-29T07:49:10;4.00;99.90
12408;DHT22;6268;48.188;17.134;2023-12-29T07:51:39;4.00;99.90
12408;DHT22;6268;48.188;17.134;2023-12-29T07:54:09;4.10;99.90
12408;DHT22;6268;48.188;17.134;2023-12-29T07:56:38;4.20;99.90
12408;DHT22;6268;48.188;17.134;2023-12-29T07:59:07;4.20;99.90
12408;DHT22;6268;48.188;17.134;2023-12-29T08:01:35;4.20;99.90
12408;DHT22;6268;48.188;17.134;2023-12-29T08:04:05;4.20;99.90
12408;DHT22;6268;48.188;17.134;2023-12-29T08:06:38;4.20;99.90
12408;DHT22;6268;48.188;17.134;2023-12-29T08:09:10;4.30;99.90
12408;DHT22;6268;48.188;17.134;2023-12-29T08:11:39;4.40;99.90
12408;DHT22;6268;48.188;17.134;2023-12-29T08:14:10;4.50;99.90
12408;DHT22;6268;48.188;17.134;2023-12-29T08:16:39;4.50;99.90
12408;DHT22;6268;48.188;17.134;2023-12-29T08:19:08;4.50;99.90
12408;DHT22;6268;48.188;17.134;2023-12-29T08:21:39;4.50;99.90
12408;DHT22;6268;48.188;17.134;2023-12-29T08:24:07;4.50;99.90
12408;DHT22;6268;48.188;17.134;2023-12-29T08:26:43;4.50;99.90
12408;DHT22;6268;48.188;17.134;2023-12-29T08:29:12;4.40;99.90
12408;DHT22;6268;48.188;17.134;2023-12-29T08:31:41;4.40;99.90
12408;DHT22;6268;48.188;17.134;2023-12-29T08:34:10;4.40;99.90
12408;DHT22;6268;48.188;17.134;2023-12-29T08:36:41;4.50;99.90
12408;DHT22;6268;48.188;17.134;2023-12-29T08:39:09;4.50;99.90
12408;DHT22;6268;48.188;17.134;2023-12-29T08:41:39;4.50;99.90
12408;DHT22;6268;48.188;17.134;2023-12-29T08:44:07;4.60;99.90
12408;DHT22;6268;48.188;17.134;2023-12-29T08:46:37;4.60;99.90
12408;DHT22;6268;48.188;17.134;2023-12-29T08:49:06;4.60;99.90
12408;DHT22;6268;48.188;17.134;2023-12-29T08:51:35;4.70;99.90
12408;DHT22;6268;48.188;17.134;2023-12-29T08:54:05;4.70;99.90
12408;DHT22;6268;48.188;17.134;2023-12-29T08:56:34;4.70;99.90
12408;DHT22;6268;48.188;17.134;2023-12-29T08:59:03;4.80;99.90
12408;DHT22;6268;48.188;17.134;2023-12-29T09:01:31;4.90;99.90
12408;DHT22;6268;48.188;17.134;2023-12-29T09:04:00;5.00;99.90
12408;DHT22;6268;48.188;17.134;2023-12-29T09:06:29;4.90;99.90
12408;DHT22;6268;48.188;17.134;2023-12-29T09:08:58;5.00;99.90
12408;DHT22;6268;48.188;17.134;2023-12-29T09:11:28;5.10;99.90
12408;DHT22;6268;48.188;17.134;2023-12-29T09:13:56;5.10;99.90
12408;DHT22;6268;48.188;17.134;2023-12-29T09:16:25;5.00;99.90
12408;DHT22;6268;48.188;17.134;2023-12-29T09:18:53;5.20;99.90
12408;DHT22;6268;48.188;17.134;2023-12-29T09:21:22;5.20;99.90
12408;DHT22;6268;48.188;17.134;2023-12-29T09:23:50;5.20;99.90
12408;DHT22;6268;48.188;17.134;2023-12-29T09:26:19;5.10;99.90
12408;DHT22;6268;48.188;17.134;2023-12-29T09:28:49;5.00;99.90
12408;DHT22;6268;48.188;17.134;2023-12-29T09:31:18;5.20;99.90
12408;DHT22;6268;48.188;17.134;2023-12-29T09:33:47;5.20;99.90
12408;DHT22;6268;48.188;17.134;2023-12-29T09:36:15;5.00;99.90
12408;DHT22;6268;48.188;17.134;2023-12-29T09:38:44;5.00;99.90
12408;DHT22;6268;48.188;17.134;2023-12-29T09:41:14;5.00;99.90
12408;DHT22;6268;48.188;17.134;2023-12-29T09:43:46;5.00;99.90
12408;DHT22;6268;48.188;17.134;2023-12-29T09:46:19;5.00;99.90
12408;DHT22;6268;48.188;17.134;2023-12-29T09:48:52;5.00;99.90
12408;DHT22;6268;48.188;17.134;2023-12-29T09:51:23;5.10;99.90
12408;DHT22;6268;48.188;17.134;2023-12-29T09:53:54;5.10;99.90
12408;DHT22;6268;48.188;17.134;2023-12-29T09:56:25;5.10;99.90
12408;DHT22;6268;48.188;17.134;2023-12-29T09:58:54;5.00;99.90
12408;DHT22;6268;48.188;17.134;2023-12-29T10:01:26;4.90;99.90
12408;DHT22;6268;48.188;17.134;2023-12-29T10:03:57;4.90;99.90
12408;DHT22;6268;48.188;17.134;2023-12-29T10:06:26;5.10;99.90
12408;DHT22;6268;48.188;17.134;2023-12-29T10:08:56;5.20;99.90
12408;DHT22;6268;48.188;17.134;2023-12-29T10:11:26;5.20;99.90
12408;DHT22;6268;48.188;17.134;2023-12-29T10:13:55;5.30;99.90
12408;DHT22;6268;48.188;17.134;2023-12-29T10:16:32;5.30;99.90
12408;DHT22;6268;48.188;17.134;2023-12-29T10:19:13;5.10;99.90
12408;DHT22;6268;48.188;17.134;2023-12-29T10:21:51;5.10;99.90
12408;DHT22;6268;48.188;17.134;2023-12-29T10:24:21;5.10;99.90
12408;DHT22;6268;48.188;17.134;2023-12-29T10:26:50;5.00;99.90
12408;DHT22;6268;48.188;17.134;2023-12-29T10:29:21;5.10;99.90
12408;DHT22;6268;48.188;17.134;2023-12-29T10:31:52;5.30;99.90
12408;DHT22;6268;48.188;17.134;2023-12-29T10:34:22;5.30;99.90
12408;DHT22;6268;48.188;17.134;2023-12-29T10:36:57;5.30;99.90
12408;DHT22;6268;48.188;17.134;2023-12-29T10:39:26;5.40;99.90
12408;DHT22;6268;48.188;17.134;2023-12-29T10:42:03;5.40;99.90
12408;DHT22;6268;48.188;17.134;2023-12-29T10:44:33;5.40;99.90
12408;DHT22;6268;48.188;17.134;2023-12-29T10:47:18;5.50;99.90
12408;DHT22;6268;48.188;17.134;2023-12-29T10:49:47;5.60;99.90
12408;DHT22;6268;48.188;17.134;2023-12-29T10:52:16;5.70;99.90
12408;DHT22;6268;48.188;17.134;2023-12-29T10:54:45;5.70;99.90
12408;DHT22;6268;48.188;17.134;2023-12-29T10:57:14;5.70;99.90
12408;DHT22;6268;48.188;17.134;2023-12-29T10:59:42;5.60;99.90
12408;DHT22;6268;48.188;17.134;2023-12-29T11:02:11;5.70;99.90
12408;DHT22;6268;48.188;17.134;2023-12-29T11:04:44;5.80;99.90
12408;DHT22;6268;48.188;17.134;2023-12-29T11:07:12;5.70;99.90
12408;DHT22;6268;48.188;17.134;2023-12-29T11:09:41;5.70;99.90
12408;DHT22;6268;48.188;17.134;2023-12-29T11:12:11;5.70;99.90
12408;DHT22;6268;48.188;17.134;2023-12-29T11:14:41;5.60;99.90
12408;DHT22;6268;48.188;17.134;2023-12-29T11:17:14;5.50;99.90
12408;DHT22;6268;48.188;17.134;2023-12-29T11:19:46;5.50;99.90
12408;DHT22;6268;48.188;17.134;2023-12-29T11:22:17;5.50;99.90
12408;DHT22;6268;48.188;17.134;2023-12-29T11:24:46;5.60;99.90
12408;DHT22;6268;48.188;17.134;2023-12-29T11:27:16;5.70;99.90
12408;DHT22;6268;48.188;17.134;2023-12-29T11:29:47;5.80;99.90
12408;DHT22;6268;48.188;17.134;2023-12-29T11:32:20;5.80;99.90
12408;DHT22;6268;48.188;17.134;2023-12-29T11:34:55;5.80;99.90
12408;DHT22;6268;48.188;17.134;2023-12-29T11:37:36;5.70;99.90
12408;DHT22;6268;48.188;17.134;2023-12-29T11:40:16;5.70;99.90
12408;DHT22;6268;48.188;17.134;2023-12-29T11:42:48;5.70;99.90
12408;DHT22;6268;48.188;17.134;2023-12-29T11:45:29;5.80;99.90
12408;DHT22;6268;48.188;17.134;2023-12-29T11:47:59;6.00;99.90
12408;DHT22;6268;48.188;17.134;2023-12-29T11:50:33;6.00;99.90
12408;DHT22;6268;48.188;17.134;2023-12-29T11:53:02;6.00;99.90
12408;DHT22;6268;48.188;17.134;2023-12-29T11:55:34;6.10;99.90
12408;DHT22;6268;48.188;17.134;2023-12-29T11:58:03;6.20;99.90
12408;DHT22;6268;48.188;17.134;2023-12-29T12:00:46;6.10;99.90
12408;DHT22;6268;48.188;17.134;2023-12-29T12:03:16;6.20;99.90
12408;DHT22;6268;48.188;17.134;2023-12-29T12:05:48;6.30;99.90
12408;DHT22;6268;48.188;17.134;2023-12-29T12:08:28;6.30;99.90
12408;DHT22;6268;48.188;17.134;2023-12-29T12:10:57;6.40;99.90
12408;DHT22;6268;48.188;17.134;2023-12-29T12:13:46;6.50;99.90
12408;DHT22;6268;48.188;17.134;2023-12-29T12:19:17;6.50;99.90
12408;DHT22;6268;48.188;17.134;2023-12-29T12:21:49;6.40;99.90
12408;DHT22;6268;48.188;17.134;2023-12-29T12:24:20;6.30;99.90
12408;DHT22;6268;48.188;17.134;2023-12-29T12:26:49;6.40;99.90
12408;DHT22;6268;48.188;17.134;2023-12-29T12:29:18;6.40;99.90
12408;DHT22;6268;48.188;17.134;2023-12-29T12:31:54;6.40;99.90
12408;DHT22;6268;48.188;17.134;2023-12-29T12:34:23;6.30;99.90
12408;DHT22;6268;48.188;17.134;2023-12-29T12:36:54;6.30;99.90
12408;DHT22;6268;48.188;17.134;2023-12-29T12:39:24;6.20;99.90
12408;DHT22;6268;48.188;17.134;2023-12-29T12:41:52;6.30;99.90
12408;DHT22;6268;48.188;17.134;2023-12-29T12:44:21;6.20;99.90
12408;DHT22;6268;48.188;17.134;2023-12-29T12:46:57;6.20;99.90
12408;DHT22;6268;48.188;17.134;2023-12-29T12:49:29;6.10;99.90
12408;DHT22;6268;48.188;17.134;2023-12-29T12:51:59;6.00;99.90
12408;DHT22;6268;48.188;17.134;2023-12-29T12:54:29;6.10;99.90
12408;DHT22;6268;48.188;17.134;2023-12-29T12:57:00;6.10;99.90
12408;DHT22;6268;48.188;17.134;2023-12-29T12:59:29;6.10;99.90
12408;DHT22;6268;48.188;17.134;2023-12-29T13:01:58;6.10;99.90
12408;DHT22;6268;48.188;17.134;2023-12-29T13:04:27;6.20;99.90
12408;DHT22;6268;48.188;17.134;2023-12-29T13:06:56;6.20;99.90
12408;DHT22;6268;48.188;17.134;2023-12-29T13:09:26;6.20;99.90
12408;DHT22;6268;48.188;17.134;2023-12-29T13:12:08;6.20;99.90
12408;DHT22;6268;48.188;17.134;2023-12-29T13:14:36;6.10;99.90
12408;DHT22;6268;48.188;17.134;2023-12-29T13:17:06;6.10;99.90
12408;DHT22;6268;48.188;17.134;2023-12-29T13:19:35;6.00;99.90
12408;DHT22;6268;48.188;17.134;2023-12-29T13:22:06;5.80;99.90
12408;DHT22;6268;48.188;17.134;2023-12-29T13:24:42;5.80;99.90
12408;DHT22;6268;48.188;17.134;2023-12-29T13:27:12;5.70;99.90
12408;DHT22;6268;48.188;17.134;2023-12-29T13:29:41;5.70;99.90
12408;DHT22;6268;48.188;17.134;2023-12-29T13:32:13;5.80;99.90
12408;DHT22;6268;48.188;17.134;2023-12-29T13:34:52;6.00;99.90
12408;DHT22;6268;48.188;17.134;2023-12-29T13:37:29;6.00;99.90
12408;DHT22;6268;48.188;17.134;2023-12-29T13:40:08;5.90;99.90
12408;DHT22;6268;48.188;17.134;2023-12-29T13:42:39;5.80;99.90
12408;DHT22;6268;48.188;17.134;2023-12-29T13:45:10;5.90;99.90
12408;DHT22;6268;48.188;17.134;2023-12-29T13:47:39;5.90;99.90
12408;DHT22;6268;48.188;17.134;2023-12-29T13:50:10;5.80;99.90
12408;DHT22;6268;48.188;17.134;2023-12-29T13:52:37;5.80;99.90
12408;DHT22;6268;48.188;17.134;2023-12-29T13:55:08;5.80;99.90
12408;DHT22;6268;48.188;17.134;2023-12-29T13:57:37;5.70;99.90
12408;DHT22;6268;48.188;17.134;2023-12-29T14:00:16;5.80;99.90
12408;DHT22;6268;48.188;17.134;2023-12-29T14:02:45;5.90;99.90
12408;DHT22;6268;48.188;17.134;2023-12-29T14:05:26;5.90;99.90
12408;DHT22;6268;48.188;17.134;2023-12-29T14:08:00;5.80;99.90
12408;DHT22;6268;48.188;17.134;2023-12-29T14:10:31;6.00;99.90
12408;DHT22;6268;48.188;17.134;2023-12-29T14:13:05;5.90;99.90
12408;DHT22;6268;48.188;17.134;2023-12-29T14:15:35;5.90;99.90
12408;DHT22;6268;48.188;17.134;2023-12-29T14:18:10;5.90;99.90
12408;DHT22;6268;48.188;17.134;2023-12-29T14:20:43;5.80;99.90
12408;DHT22;6268;48.188;17.134;2023-12-29T14:23:13;5.70;99.90
12408;DHT22;6268;48.188;17.134;2023-12-29T14:25:43;5.60;99.90
12408;DHT22;6268;48.188;17.134;2023-12-29T14:28:18;5.60;99.90
12408;DHT22;6268;48.188;17.134;2023-12-29T14:30:47;5.70;99.90
12408;DHT22;6268;48.188;17.134;2023-12-29T14:33:15;5.60;99.90
12408;DHT22;6268;48.188;17.134;2023-12-29T14:35:44;5.60;99.90
12408;DHT22;6268;48.188;17.134;2023-12-29T14:38:12;5.50;99.90
12408;DHT22;6268;48.188;17.134;2023-12-29T14:40:46;5.50;99.90
12408;DHT22;6268;48.188;17.134;2023-12-29T14:43:15;5.60;99.90
12408;DHT22;6268;48.188;17.134;2023-12-29T14:45:43;5.70;99.90
12408;DHT22;6268;48.188;17.134;2023-12-29T14:48:12;5.70;99.90
12408;DHT22;6268;48.188;17.134;2023-12-29T14:50:41;5.70;99.90
12408;DHT22;6268;48.188;17.134;2023-12-29T14:53:13;5.80;99.90
12408;DHT22;6268;48.188;17.134;2023-12-29T14:55:41;5.80;99.90
12408;DHT22;6268;48.188;17.134;2023-12-29T14:58:12;5.60;99.90
12408;DHT22;6268;48.188;17.134;2023-12-29T15:00:43;5.50;99.90
12408;DHT22;6268;48.188;17.134;2023-12-29T15:03:13;5.50;99.90
12408;DHT22;6268;48.188;17.134;2023-12-29T15:05:43;5.50;99.90
12408;DHT22;6268;48.188;17.134;2023-12-29T15:08:13;5.50;99.90
12408;DHT22;6268;48.188;17.134;2023-12-29T15:10:41;5.50;99.90
12408;DHT22;6268;48.188;17.134;2023-12-29T15:13:13;5.60;99.90
12408;DHT22;6268;48.188;17.134;2023-12-29T15:15:42;5.60;99.90
12408;DHT22;6268;48.188;17.134;2023-12-29T15:18:11;5.70;99.90
12408;DHT22;6268;48.188;17.134;2023-12-29T15:20:40;5.70;99.90
12408;DHT22;6268;48.188;17.134;2023-12-29T15:23:08;5.60;99.90
12408;DHT22;6268;48.188;17.134;2023-12-29T15:25:37;5.60;99.90
12408;DHT22;6268;48.188;17.134;2023-12-29T15:28:06;5.70;99.90
12408;DHT22;6268;48.188;17.134;2023-12-29T15:30:36;5.70;99.90
12408;DHT22;6268;48.188;17.134;2023-12-29T15:33:04;5.70;99.90
12408;DHT22;6268;48.188;17.134;2023-12-29T15:35:33;5.70;99.90
12408;DHT22;6268;48.188;17.134;2023-12-29T15:38:01;5.70;99.90
12408;DHT22;6268;48.188;17.134;2023-12-29T15:40:30;5.60;99.90
12408;DHT22;6268;48.188;17.134;2023-12-29T15:42:59;5.70;99.90
12408;DHT22;6268;48.188;17.134;2023-12-29T15:45:30;5.70;99.90
12408;DHT22;6268;48.188;17.134;2023-12-29T15:48:00;5.80;99.90
12408;DHT22;6268;48.188;17.134;2023-12-29T15:50:29;5.80;99.90
12408;DHT22;6268;48.188;17.134;2023-12-29T15:52:58;5.70;99.90
12408;DHT22;6268;48.188;17.134;2023-12-29T15:55:26;5.70;99.90
12408;DHT22;6268;48.188;17.134;2023-12-29T15:57:55;5.70;99.90
12408;DHT22;6268;48.188;17.134;2023-12-29T16:00:24;5.60;99.90
12408;DHT22;6268;48.188;17.134;2023-12-29T16:02:52;5.60;99.90
12408;DHT22;6268;48.188;17.134;2023-12-29T16:05:22;5.60;99.90